sensor_id;sensor_type;location;lat;lon;timestamp;temperature;humidity
12849;DHT22;6493;50.928;7.172;2023-05-18T00:00:45;5.10;43.60
12849;DHT22;6493;50.928;7.172;2023-05-18T00:05:50;5.00;43.90
12849;DHT22;6493;50.928;7.172;2023-05-18T00:10:54;4.90;43.80
12849;DHT22;6493;50.928;7.172;2023-05-18T00:15:58;4.80;44.60
12849;DHT22;6493;50.928;7.172;2023-05-18T00:21:04;4.70;44.20
12849;DHT22;6493;50.928;7.172;2023-05-18T00:26:07;4.60;45.00
12849;DHT22;6493;50.928;7.172;2023-05-18T00:31:11;4.50;44.50
12849;DHT22;6493;50.928;7.172;2023-05-18T00:36:16;4.40;44.60
12849;DHT22;6493;50.928;7.172;2023-05-18T00:41:20;4.40;44.50
12849;DHT22;6493;50.928;7.172;2023-05-18T00:46:24;4.30;44.60
12849;DHT22;6493;50.928;7.172;2023-05-18T00:51:31;4.30;44.80
12849;DHT22;6493;50.928;7.172;2023-05-18T00:56:36;4.20;44.80
12849;DHT22;6493;50.928;7.172;2023-05-18T01:01:43;4.10;44.80
12849;DHT22;6493;50.928;7.172;2023-05-18T01:06:49;4.10;45.10
12849;DHT22;6493;50.928;7.172;2023-05-18T01:12:02;4.00;44.70
12849;DHT22;6493;50.928;7.172;2023-05-18T01:17:15;4.00;44.70
12849;DHT22;6493;50.928;7.172;2023-05-18T01:22:33;3.90;45.20
12849;DHT22;6493;50.928;7.172;2023-05-18T01:27:41;3.80;45.30
12849;DHT22;6493;50.928;7.172;2023-05-18T01:32:49;3.70;45.90
12849;DHT22;6493;50.928;7.172;2023-05-18T01:37:53;3.60;45.90
12849;DHT22;6493;50.928;7.172;2023-05-18T01:43:02;3.50;45.90
12849;DHT22;6493;50.928;7.172;2023-05-18T01:48:10;3.50;46.60
12849;DHT22;6493;50.928;7.172;2023-05-18T01:53:22;3.40;46.70
12849;DHT22;6493;50.928;7.172;2023-05-18T01:58:27;3.30;46.50
12849;DHT22;6493;50.928;7.172;2023-05-18T02:03:31;3.30;46.30
12849;DHT22;6493;50.928;7.172;2023-05-18T02:08:35;3.20;46.30
12849;DHT22;6493;50.928;7.172;2023-05-18T02:13:40;3.20;46.70
12849;DHT22;6493;50.928;7.172;2023-05-18T02:18:44;3.20;46.60
12849;DHT22;6493;50.928;7.172;2023-05-18T02:23:48;3.10;46.60
12849;DHT22;6493;50.928;7.172;2023-05-18T02:28:53;3.10;47.50
12849;DHT22;6493;50.928;7.172;2023-05-18T02:33:57;3.00;46.70
12849;DHT22;6493;50.928;7.172;2023-05-18T02:39:01;3.00;48.00
12849;DHT22;6493;50.928;7.172;2023-05-18T02:44:06;2.90;47.60
12849;DHT22;6493;50.928;7.172;2023-05-18T02:49:10;2.80;47.10
12849;DHT22;6493;50.928;7.172;2023-05-18T02:54:16;2.80;47.50
12849;DHT22;6493;50.928;7.172;2023-05-18T02:59:22;2.80;47.80
12849;DHT22;6493;50.928;7.172;2023-05-18T03:04:25;2.70;47.90
12849;DHT22;6493;50.928;7.172;2023-05-18T03:09:31;2.60;48.00
12849;DHT22;6493;50.928;7.172;2023-05-18T03:14:36;2.50;48.10
12849;DHT22;6493;50.928;7.172;2023-05-18T03:19:39;2.50;48.20
12849;DHT22;6493;50.928;7.172;2023-05-18T03:24:43;2.40;48.50
12849;DHT22;6493;50.928;7.172;2023-05-18T03:29:51;2.30;48.10
12849;DHT22;6493;50.928;7.172;2023-05-18T03:34:55;2.30;48.70
12849;DHT22;6493;50.928;7.172;2023-05-18T03:40:07;2.20;48.80
12849;DHT22;6493;50.928;7.172;2023-05-18T03:45:14;2.10;49.10
12849;DHT22;6493;50.928;7.172;2023-05-18T03:50:18;2.10;48.50
12849;DHT22;6493;50.928;7.172;2023-05-18T03:55:22;2.10;48.70
12849;DHT22;6493;50.928;7.172;2023-05-18T04:00:29;2.10;49.50
12849;DHT22;6493;50.928;7.172;2023-05-18T04:05:33;2.10;49.10
12849;DHT22;6493;50.928;7.172;2023-05-18T04:10:37;2.00;48.90
12849;DHT22;6493;50.928;7.172;2023-05-18T04:15:42;2.00;49.20
12849;DHT22;6493;50.928;7.172;2023-05-18T04:20:45;2.10;49.60
12849;DHT22;6493;50.928;7.172;2023-05-18T04:25:49;2.50;50.10
12849;DHT22;6493;50.928;7.172;2023-05-18T04:30:54;2.80;50.60
12849;DHT22;6493;50.928;7.172;2023-05-18T04:35:58;3.30;50.50
12849;DHT22;6493;50.928;7.172;2023-05-18T04:41:06;3.70;50.50
12849;DHT22;6493;50.928;7.172;2023-05-18T04:46:12;4.20;49.80
12849;DHT22;6493;50.928;7.172;2023-05-18T04:51:19;4.70;49.70
12849;DHT22;6493;50.928;7.172;2023-05-18T04:56:23;5.10;49.60
12849;DHT22;6493;50.928;7.172;2023-05-18T05:01:28;5.50;49.50
12849;DHT22;6493;50.928;7.172;2023-05-18T05:06:32;6.00;49.60
12849;DHT22;6493;50.928;7.172;2023-05-18T05:11:37;6.50;49.80
12849;DHT22;6493;50.928;7.172;2023-05-18T05:16:42;7.20;50.60
12849;DHT22;6493;50.928;7.172;2023-05-18T05:21:46;8.00;50.50
12849;DHT22;6493;50.928;7.172;2023-05-18T05:26:49;8.70;49.30
12849;DHT22;6493;50.928;7.172;2023-05-18T05:31:54;8.90;47.80
12849;DHT22;6493;50.928;7.172;2023-05-18T05:36:58;8.70;46.80
12849;DHT22;6493;50.928;7.172;2023-05-18T05:42:02;8.40;46.60
12849;DHT22;6493;50.928;7.172;2023-05-18T05:47:08;8.20;46.60
12849;DHT22;6493;50.928;7.172;2023-05-18T05:52:12;8.00;46.20
12849;DHT22;6493;50.928;7.172;2023-05-18T05:57:16;7.70;46.40
12849;DHT22;6493;50.928;7.172;2023-05-18T06:02:21;7.70;47.10
12849;DHT22;6493;50.928;7.172;2023-05-18T06:07:26;7.90;47.30
12849;DHT22;6493;50.928;7.172;2023-05-18T06:12:31;8.20;48.20
12849;DHT22;6493;50.928;7.172;2023-05-18T06:17:36;8.90;49.00
12849;DHT22;6493;50.928;7.172;2023-05-18T06:22:41;9.60;49.30
12849;DHT22;6493;50.928;7.172;2023-05-18T06:28:11;10.40;49.30
12849;DHT22;6493;50.928;7.172;2023-05-18T06:33:25;11.00;48.50
12849;DHT22;6493;50.928;7.172;2023-05-18T06:38:29;11.40;48.00
12849;DHT22;6493;50.928;7.172;2023-05-18T06:43:33;11.80;47.40
12849;DHT22;6493;50.928;7.172;2023-05-18T06:48:57;12.10;45.80
12849;DHT22;6493;50.928;7.172;2023-05-18T06:54:01;12.20;46.40
12849;DHT22;6493;50.928;7.172;2023-05-18T06:59:05;12.50;46.80
12849;DHT22;6493;50.928;7.172;2023-05-18T07:04:10;12.80;47.00
12849;DHT22;6493;50.928;7.172;2023-05-18T07:09:14;13.20;46.60
12849;DHT22;6493;50.928;7.172;2023-05-18T07:14:18;13.40;45.80
12849;DHT22;6493;50.928;7.172;2023-05-18T07:19:23;13.50;45.90
12849;DHT22;6493;50.928;7.172;2023-05-18T07:24:27;13.60;46.00
12849;DHT22;6493;50.928;7.172;2023-05-18T07:29:32;13.60;44.50
12849;DHT22;6493;50.928;7.172;2023-05-18T07:34:37;13.50;44.40
12849;DHT22;6493;50.928;7.172;2023-05-18T07:39:40;13.40;44.30
12849;DHT22;6493;50.928;7.172;2023-05-18T07:44:44;13.20;44.00
12849;DHT22;6493;50.928;7.172;2023-05-18T07:49:49;13.00;43.30
12849;DHT22;6493;50.928;7.172;2023-05-18T07:54:54;12.80;43.80
12849;DHT22;6493;50.928;7.172;2023-05-18T07:59:58;12.50;43.50
12849;DHT22;6493;50.928;7.172;2023-05-18T08:05:03;12.40;44.00
12849;DHT22;6493;50.928;7.172;2023-05-18T08:10:08;12.40;44.20
12849;DHT22;6493;50.928;7.172;2023-05-18T08:15:12;12.40;43.70
12849;DHT22;6493;50.928;7.172;2023-05-18T08:20:17;12.40;44.40
12849;DHT22;6493;50.928;7.172;2023-05-18T08:25:20;12.50;43.90
12849;DHT22;6493;50.928;7.172;2023-05-18T08:30:24;12.50;43.80
12849;DHT22;6493;50.928;7.172;2023-05-18T08:35:29;12.50;43.70
12849;DHT22;6493;50.928;7.172;2023-05-18T08:40:38;12.70;44.10
12849;DHT22;6493;50.928;7.172;2023-05-18T08:45:49;12.80;43.90
12849;DHT22;6493;50.928;7.172;2023-05-18T08:50:57;12.90;43.60
12849;DHT22;6493;50.928;7.172;2023-05-18T08:56:01;12.80;43.50
12849;DHT22;6493;50.928;7.172;2023-05-18T09:01:05;12.80;43.70
12849;DHT22;6493;50.928;7.172;2023-05-18T09:06:11;12.90;44.00
12849;DHT22;6493;50.928;7.172;2023-05-18T09:11:17;12.90;42.50
12849;DHT22;6493;50.928;7.172;2023-05-18T09:16:21;12.90;42.60
12849;DHT22;6493;50.928;7.172;2023-05-18T09:21:26;13.00;42.80
12849;DHT22;6493;50.928;7.172;2023-05-18T09:26:29;13.10;42.70
12849;DHT22;6493;50.928;7.172;2023-05-18T09:31:33;13.30;41.90
12849;DHT22;6493;50.928;7.172;2023-05-18T09:36:38;13.30;42.80
12849;DHT22;6493;50.928;7.172;2023-05-18T09:41:43;13.60;42.60
12849;DHT22;6493;50.928;7.172;2023-05-18T09:46:47;13.80;42.50
12849;DHT22;6493;50.928;7.172;2023-05-18T09:51:52;14.10;43.10
12849;DHT22;6493;50.928;7.172;2023-05-18T09:56:56;14.30;42.60
12849;DHT22;6493;50.928;7.172;2023-05-18T10:02:11;14.50;42.30
12849;DHT22;6493;50.928;7.172;2023-05-18T10:07:18;14.70;41.60
12849;DHT22;6493;50.928;7.172;2023-05-18T10:12:22;14.70;41.40
12849;DHT22;6493;50.928;7.172;2023-05-18T10:17:26;14.90;41.80
12849;DHT22;6493;50.928;7.172;2023-05-18T10:22:34;15.00;40.50
12849;DHT22;6493;50.928;7.172;2023-05-18T10:27:38;15.00;41.00
12849;DHT22;6493;50.928;7.172;2023-05-18T10:32:44;15.10;41.40
12849;DHT22;6493;50.928;7.172;2023-05-18T10:37:50;15.20;40.90
12849;DHT22;6493;50.928;7.172;2023-05-18T10:42:56;15.40;41.90
12849;DHT22;6493;50.928;7.172;2023-05-18T10:48:03;15.60;40.40
12849;DHT22;6493;50.928;7.172;2023-05-18T10:53:12;15.70;41.20
12849;DHT22;6493;50.928;7.172;2023-05-18T10:58:18;15.90;41.90
12849;DHT22;6493;50.928;7.172;2023-05-18T11:03:24;16.10;41.50
12849;DHT22;6493;50.928;7.172;2023-05-18T11:08:29;16.30;41.60
12849;DHT22;6493;50.928;7.172;2023-05-18T11:13:34;16.40;40.70
12849;DHT22;6493;50.928;7.172;2023-05-18T11:18:42;16.40;41.10
12849;DHT22;6493;50.928;7.172;2023-05-18T11:24:18;16.50;39.70
12849;DHT22;6493;50.928;7.172;2023-05-18T11:29:23;16.50;39.70
12849;DHT22;6493;50.928;7.172;2023-05-18T11:34:38;16.60;40.70
12849;DHT22;6493;50.928;7.172;2023-05-18T11:39:54;16.70;39.10
12849;DHT22;6493;50.928;7.172;2023-05-18T11:45:07;16.60;38.60
12849;DHT22;6493;50.928;7.172;2023-05-18T11:50:11;16.50;39.60
12849;DHT22;6493;50.928;7.172;2023-05-18T11:55:18;16.40;39.00
12849;DHT22;6493;50.928;7.172;2023-05-18T12:00:23;16.40;38.70
12849;DHT22;6493;50.928;7.172;2023-05-18T12:05:29;16.30;39.20
12849;DHT22;6493;50.928;7.172;2023-05-18T12:10:34;16.30;38.20
12849;DHT22;6493;50.928;7.172;2023-05-18T12:15:39;16.40;39.30
12849;DHT22;6493;50.928;7.172;2023-05-18T12:20:43;16.50;39.70
12849;DHT22;6493;50.928;7.172;2023-05-18T12:25:49;16.70;40.10
12849;DHT22;6493;50.928;7.172;2023-05-18T12:30:55;17.00;40.30
12849;DHT22;6493;50.928;7.172;2023-05-18T12:35:58;17.20;39.40
12849;DHT22;6493;50.928;7.172;2023-05-18T12:41:03;17.10;38.40
12849;DHT22;6493;50.928;7.172;2023-05-18T12:46:08;16.90;38.20
12849;DHT22;6493;50.928;7.172;2023-05-18T12:51:17;16.70;38.60
12849;DHT22;6493;50.928;7.172;2023-05-18T12:56:22;16.70;38.80
12849;DHT22;6493;50.928;7.172;2023-05-18T13:01:27;16.80;38.80
12849;DHT22;6493;50.928;7.172;2023-05-18T13:06:30;16.80;38.10
12849;DHT22;6493;50.928;7.172;2023-05-18T13:11:35;16.80;38.10
12849;DHT22;6493;50.928;7.172;2023-05-18T13:16:44;16.90;38.20
12849;DHT22;6493;50.928;7.172;2023-05-18T13:21:55;17.10;38.50
12849;DHT22;6493;50.928;7.172;2023-05-18T13:27:00;17.20;38.30
12849;DHT22;6493;50.928;7.172;2023-05-18T13:32:04;17.30;37.00
12849;DHT22;6493;50.928;7.172;2023-05-18T13:37:08;17.40;38.40
12849;DHT22;6493;50.928;7.172;2023-05-18T13:42:15;17.50;37.10
12849;DHT22;6493;50.928;7.172;2023-05-18T13:47:22;17.50;37.80
12849;DHT22;6493;50.928;7.172;2023-05-18T13:52:26;17.40;38.00
12849;DHT22;6493;50.928;7.172;2023-05-18T13:57:31;17.30;37.20
12849;DHT22;6493;50.928;7.172;2023-05-18T14:02:35;17.10;37.10
12849;DHT22;6493;50.928;7.172;2023-05-18T14:07:40;17.00;38.00
12849;DHT22;6493;50.928;7.172;2023-05-18T14:12:45;17.10;38.30
12849;DHT22;6493;50.928;7.172;2023-05-18T14:17:49;17.20;37.70
12849;DHT22;6493;50.928;7.172;2023-05-18T14:22:53;17.20;38.40
12849;DHT22;6493;50.928;7.172;2023-05-18T14:27:59;17.10;38.00
12849;DHT22;6493;50.928;7.172;2023-05-18T14:33:03;17.20;38.40
12849;DHT22;6493;50.928;7.172;2023-05-18T14:38:06;17.30;38.50
12849;DHT22;6493;50.928;7.172;2023-05-18T14:43:11;17.40;38.00
12849;DHT22;6493;50.928;7.172;2023-05-18T14:48:15;17.40;37.70
12849;DHT22;6493;50.928;7.172;2023-05-18T14:53:19;17.20;37.70
12849;DHT22;6493;50.928;7.172;2023-05-18T14:58:24;17.00;37.50
12849;DHT22;6493;50.928;7.172;2023-05-18T15:03:27;16.90;38.00
12849;DHT22;6493;50.928;7.172;2023-05-18T15:08:31;16.90;38.30
12849;DHT22;6493;50.928;7.172;2023-05-18T15:13:36;17.00;38.40
12849;DHT22;6493;50.928;7.172;2023-05-18T15:18:41;17.20;38.50
12849;DHT22;6493;50.928;7.172;2023-05-18T15:23:45;17.20;37.60
12849;DHT22;6493;50.928;7.172;2023-05-18T15:28:50;17.00;37.80
12849;DHT22;6493;50.928;7.172;2023-05-18T15:33:53;16.80;37.80
12849;DHT22;6493;50.928;7.172;2023-05-18T15:38:57;16.70;38.00
12849;DHT22;6493;50.928;7.172;2023-05-18T15:44:02;16.60;38.30
12849;DHT22;6493;50.928;7.172;2023-05-18T15:49:05;16.60;38.50
12849;DHT22;6493;50.928;7.172;2023-05-18T15:54:09;16.70;38.60
12849;DHT22;6493;50.928;7.172;2023-05-18T15:59:14;16.70;38.60
12849;DHT22;6493;50.928;7.172;2023-05-18T16:04:18;16.80;38.60
12849;DHT22;6493;50.928;7.172;2023-05-18T16:09:22;16.80;38.50
12849;DHT22;6493;50.928;7.172;2023-05-18T16:14:27;16.80;38.30
12849;DHT22;6493;50.928;7.172;2023-05-18T16:19:31;16.70;38.20
12849;DHT22;6493;50.928;7.172;2023-05-18T16:24:35;16.60;38.20
12849;DHT22;6493;50.928;7.172;2023-05-18T16:29:40;16.40;38.10
12849;DHT22;6493;50.928;7.172;2023-05-18T16:34:43;16.30;38.20
12849;DHT22;6493;50.928;7.172;2023-05-18T16:39:47;16.20;38.40
12849;DHT22;6493;50.928;7.172;2023-05-18T16:44:52;16.10;38.30
12849;DHT22;6493;50.928;7.172;2023-05-18T16:49:55;16.00;38.20
12849;DHT22;6493;50.928;7.172;2023-05-18T16:54:59;15.90;38.10
12849;DHT22;6493;50.928;7.172;2023-05-18T17:00:05;15.80;38.30
12849;DHT22;6493;50.928;7.172;2023-05-18T17:05:11;15.60;38.20
12849;DHT22;6493;50.928;7.172;2023-05-18T17:10:14;15.50;38.30
12849;DHT22;6493;50.928;7.172;2023-05-18T17:15:20;15.40;38.30
12849;DHT22;6493;50.928;7.172;2023-05-18T17:20:23;15.20;38.30
12849;DHT22;6493;50.928;7.172;2023-05-18T17:25:27;15.10;38.30
12849;DHT22;6493;50.928;7.172;2023-05-18T17:30:32;15.00;38.40
12849;DHT22;6493;50.928;7.172;2023-05-18T17:35:36;14.80;38.90
12849;DHT22;6493;50.928;7.172;2023-05-18T17:40:39;14.70;38.40
12849;DHT22;6493;50.928;7.172;2023-05-18T17:45:44;14.60;38.50
12849;DHT22;6493;50.928;7.172;2023-05-18T17:50:48;14.50;38.50
12849;DHT22;6493;50.928;7.172;2023-05-18T17:55:53;14.40;38.50
12849;DHT22;6493;50.928;7.172;2023-05-18T18:00:58;14.30;38.50
12849;DHT22;6493;50.928;7.172;2023-05-18T18:06:02;14.20;38.50
12849;DHT22;6493;50.928;7.172;2023-05-18T18:11:05;14.00;38.50
12849;DHT22;6493;50.928;7.172;2023-05-18T18:16:12;13.90;38.60
12849;DHT22;6493;50.928;7.172;2023-05-18T18:21:15;13.80;38.70
12849;DHT22;6493;50.928;7.172;2023-05-18T18:26:19;13.60;38.60
12849;DHT22;6493;50.928;7.172;2023-05-18T18:31:24;13.50;38.70
12849;DHT22;6493;50.928;7.172;2023-05-18T18:36:28;13.40;38.80
12849;DHT22;6493;50.928;7.172;2023-05-18T18:41:32;13.30;38.80
12849;DHT22;6493;50.928;7.172;2023-05-18T18:46:37;13.20;38.80
12849;DHT22;6493;50.928;7.172;2023-05-18T18:51:41;13.10;38.90
12849;DHT22;6493;50.928;7.172;2023-05-18T18:56:44;13.00;39.00
12849;DHT22;6493;50.928;7.172;2023-05-18T19:01:49;12.90;38.90
12849;DHT22;6493;50.928;7.172;2023-05-18T19:06:53;12.80;39.00
12849;DHT22;6493;50.928;7.172;2023-05-18T19:11:57;12.70;39.10
12849;DHT22;6493;50.928;7.172;2023-05-18T19:17:02;12.60;39.20
12849;DHT22;6493;50.928;7.172;2023-05-18T19:22:06;12.50;39.20
12849;DHT22;6493;50.928;7.172;2023-05-18T19:27:09;12.40;39.10
12849;DHT22;6493;50.928;7.172;2023-05-18T19:32:15;12.30;39.80
12849;DHT22;6493;50.928;7.172;2023-05-18T19:37:18;12.20;39.30
12849;DHT22;6493;50.928;7.172;2023-05-18T19:42:22;12.10;39.40
12849;DHT22;6493;50.928;7.172;2023-05-18T19:47:27;12.00;39.50
12849;DHT22;6493;50.928;7.172;2023-05-18T19:52:31;11.90;39.60
12849;DHT22;6493;50.928;7.172;2023-05-18T19:57:35;11.80;39.60
12849;DHT22;6493;50.928;7.172;2023-05-18T20:02:40;11.70;39.60
12849;DHT22;6493;50.928;7.172;2023-05-18T20:07:44;11.60;39.70
12849;DHT22;6493;50.928;7.172;2023-05-18T20:12:47;11.50;40.00
12849;DHT22;6493;50.928;7.172;2023-05-18T20:17:52;11.40;40.00
12849;DHT22;6493;50.928;7.172;2023-05-18T20:22:56;11.20;40.10
12849;DHT22;6493;50.928;7.172;2023-05-18T20:28:00;11.10;40.30
12849;DHT22;6493;50.928;7.172;2023-05-18T20:33:05;10.90;40.40
12849;DHT22;6493;50.928;7.172;2023-05-18T20:38:09;10.80;40.90
12849;DHT22;6493;50.928;7.172;2023-05-18T20:43:13;10.70;41.20
12849;DHT22;6493;50.928;7.172;2023-05-18T20:48:20;10.50;41.10
12849;DHT22;6493;50.928;7.172;2023-05-18T20:53:27;10.40;41.10
12849;DHT22;6493;50.928;7.172;2023-05-18T20:58:31;10.30;42.10
12849;DHT22;6493;50.928;7.172;2023-05-18T21:03:36;10.20;41.40
12849;DHT22;6493;50.928;7.172;2023-05-18T21:08:43;10.10;41.60
12849;DHT22;6493;50.928;7.172;2023-05-18T21:13:47;10.00;41.80
12849;DHT22;6493;50.928;7.172;2023-05-18T21:18:52;9.90;41.80
12849;DHT22;6493;50.928;7.172;2023-05-18T21:23:56;9.80;41.80
12849;DHT22;6493;50.928;7.172;2023-05-18T21:28:59;9.80;42.70
12849;DHT22;6493;50.928;7.172;2023-05-18T21:34:05;9.70;42.00
12849;DHT22;6493;50.928;7.172;2023-05-18T21:39:10;9.70;42.20
12849;DHT22;6493;50.928;7.172;2023-05-18T21:44:13;9.60;42.20
12849;DHT22;6493;50.928;7.172;2023-05-18T21:49:18;9.60;42.10
12849;DHT22;6493;50.928;7.172;2023-05-18T21:54:22;9.50;42.20
12849;DHT22;6493;50.928;7.172;2023-05-18T21:59:27;9.40;42.20
12849;DHT22;6493;50.928;7.172;2023-05-18T22:04:32;9.40;42.10
12849;DHT22;6493;50.928;7.172;2023-05-18T22:09:36;9.20;42.50
12849;DHT22;6493;50.928;7.172;2023-05-18T22:14:39;9.20;42.30
12849;DHT22;6493;50.928;7.172;2023-05-18T22:19:44;9.20;42.00
12849;DHT22;6493;50.928;7.172;2023-05-18T22:24:48;9.10;42.20
12849;DHT22;6493;50.928;7.172;2023-05-18T22:29:51;9.00;42.50
12849;DHT22;6493;50.928;7.172;2023-05-18T22:34:56;8.90;42.10
12849;DHT22;6493;50.928;7.172;2023-05-18T22:40:01;8.80;42.20
12849;DHT22;6493;50.928;7.172;2023-05-18T22:45:08;8.70;42.40
12849;DHT22;6493;50.928;7.172;2023-05-18T22:50:14;8.60;43.40
12849;DHT22;6493;50.928;7.172;2023-05-18T22:55:17;8.60;42.60
12849;DHT22;6493;50.928;7.172;2023-05-18T23:00:21;8.50;42.60
12849;DHT22;6493;50.928;7.172;2023-05-18T23:05:26;8.50;42.70
12849;DHT22;6493;50.928;7.172;2023-05-18T23:10:30;8.40;42.90
12849;DHT22;6493;50.928;7.172;2023-05-18T23:15:34;8.40;42.90
12849;DHT22;6493;50.928;7.172;2023-05-18T23:20:39;8.30;43.20
12849;DHT22;6493;50.928;7.172;2023-05-18T23:25:43;8.20;43.00
12849;DHT22;6493;50.928;7.172;2023-05-18T23:30:46;8.10;43.30
12849;DHT22;6493;50.928;7.172;2023-05-18T23:35:52;8.00;43.40
12849;DHT22;6493;50.928;7.172;2023-05-18T23:40:56;8.00;43.30
12849;DHT22;6493;50.928;7.172;2023-05-18T23:46:00;7.90;43.50
12849;DHT22;6493;50.928;7.172;2023-05-18T23:51:09;7.90;43.40
12849;DHT22;6493;50.928;7.172;2023-05-18T23:56:16;7.80;44.10
